Time;durP1;ratioP1;P1;durP2;ratioP2;P2;SDS_P1;SDS_P2;PMS_P1;PMS_P2;Temp;Humidity;BMP_temperature;BMP_pressure;BME280_temperature;BME280_humidity;BME280_pressure;Samples;Min_cycle;Max_cycle;Signal;HPM_P1;HPM_P2
2024/03/07 00:00:16;;;;;;;29.15;23.02;;;2.90;99.90;;;;;;5069205;28;20201;-60
2024/03/07 00:02:43;;;;;;;27.83;21.48;;;2.90;99.90;;;;;;5068842;28;20209;-59
2024/03/07 00:05:12;;;;;;;36.15;23.25;;;2.80;99.90;;;;;;5068686;28;20232;-59
2024/03/07 00:07:39;;;;;;;34.35;21.70;;;2.80;99.90;;;;;;5068460;28;20230;-59
2024/03/07 00:10:08;;;;;;;30.50;20.85;;;2.70;99.90;;;;;;5068845;28;20226;-60
2024/03/07 00:12:35;;;;;;;33.13;21.48;;;2.70;99.90;;;;;;5065537;28;20213;-59
2024/03/07 00:15:02;;;;;;;32.40;20.63;;;2.60;99.90;;;;;;5067666;28;20202;-59
2024/03/07 00:17:29;;;;;;;32.25;20.50;;;2.60;99.90;;;;;;5068441;28;20679;-58
2024/03/07 00:19:56;;;;;;;30.20;20.85;;;2.50;99.90;;;;;;5068499;28;20206;-58
2024/03/07 00:22:29;;;;;;;26.60;21.65;;;2.50;99.90;;;;;;5068913;28;20660;-59
2024/03/07 00:24:56;;;;;;;27.85;22.38;;;2.40;99.90;;;;;;5067013;28;20210;-59
2024/03/07 00:27:23;;;;;;;27.92;20.70;;;2.40;99.90;;;;;;5068317;28;20271;-59
2024/03/07 00:29:53;;;;;;;29.13;22.35;;;2.30;99.90;;;;;;5068333;28;20914;-61
2024/03/07 00:32:20;;;;;;;33.55;22.02;;;2.30;99.90;;;;;;5068491;28;20217;-62
2024/03/07 00:34:47;;;;;;;36.00;21.90;;;2.20;99.90;;;;;;5067536;28;20216;-61
2024/03/07 00:37:14;;;;;;;33.83;22.42;;;2.20;99.90;;;;;;5067702;28;20304;-61
2024/03/07 00:39:42;;;;;;;29.92;20.38;;;2.20;99.90;;;;;;5067519;28;20726;-60
2024/03/07 00:42:10;;;;;;;33.78;24.40;;;2.10;99.90;;;;;;5067621;28;20283;-61
2024/03/07 00:44:37;;;;;;;32.78;23.88;;;2.10;99.90;;;;;;5067576;28;20325;-61
2024/03/07 00:47:05;;;;;;;30.45;20.48;;;2.00;99.90;;;;;;5067733;28;20237;-61
2024/03/07 00:49:32;;;;;;;29.63;22.08;;;2.00;99.90;;;;;;5068260;28;20259;-61
2024/03/07 00:51:59;;;;;;;29.80;21.10;;;1.90;99.90;;;;;;5068382;28;20209;-60
2024/03/07 00:54:26;;;;;;;32.40;20.23;;;1.90;99.90;;;;;;5067837;28;20216;-61
2024/03/07 00:56:55;;;;;;;35.85;20.92;;;1.90;99.90;;;;;;5067727;28;20321;-62
2024/03/07 00:59:22;;;;;;;31.77;20.73;;;1.80;99.90;;;;;;5067506;28;20209;-61
2024/03/07 01:01:49;;;;;;;32.10;20.95;;;1.80;99.90;;;;;;5068617;28;20640;-61
2024/03/07 01:04:17;;;;;;;33.97;22.38;;;1.80;99.90;;;;;;5067775;28;20684;-60
2024/03/07 01:06:44;;;;;;;32.83;22.20;;;1.70;99.90;;;;;;5068252;28;20308;-61
2024/03/07 01:09:14;;;;;;;32.90;20.23;;;1.70;99.90;;;;;;5067715;28;20330;-62
2024/03/07 01:11:41;;;;;;;27.80;19.63;;;1.70;99.90;;;;;;5068477;28;20216;-62
2024/03/07 01:14:10;;;;;;;28.98;21.73;;;1.60;99.90;;;;;;5059364;28;20606;-62
2024/03/07 01:16:36;;;;;;;29.05;22.35;;;1.60;99.90;;;;;;5066155;28;20697;-60
2024/03/07 01:19:05;;;;;;;31.98;22.15;;;1.60;99.90;;;;;;5067035;28;20208;-60
2024/03/07 01:21:32;;;;;;;29.45;19.92;;;1.60;99.90;;;;;;5056566;28;20213;-62
2024/03/07 01:24:00;;;;;;;31.08;21.13;;;1.50;99.90;;;;;;5059259;28;20220;-61
2024/03/07 01:26:27;;;;;;;37.40;24.00;;;1.50;99.90;;;;;;5068709;28;20229;-62
2024/03/07 01:28:54;;;;;;;33.58;21.33;;;1.50;99.90;;;;;;5066505;28;20328;-61
2024/03/07 01:31:23;;;;;;;33.17;21.50;;;1.50;99.90;;;;;;5068545;28;20237;-61
2024/03/07 01:33:50;;;;;;;30.55;20.33;;;1.40;99.90;;;;;;5068970;28;20219;-59
2024/03/07 01:36:17;;;;;;;29.42;20.48;;;1.40;99.90;;;;;;5069296;28;20205;-61
2024/03/07 01:38:44;;;;;;;40.10;23.20;;;1.40;99.90;;;;;;5069045;28;20248;-62
2024/03/07 01:41:10;;;;;;;26.98;19.52;;;1.40;99.90;;;;;;5068738;28;20293;-62
2024/03/07 01:43:37;;;;;;;28.23;20.33;;;1.40;99.90;;;;;;5068735;28;20209;-61
2024/03/07 01:46:05;;;;;;;30.90;20.60;;;1.30;99.90;;;;;;5069188;28;20296;-61
2024/03/07 01:48:33;;;;;;;32.78;23.58;;;1.30;99.90;;;;;;5068583;28;20241;-60
2024/03/07 01:51:03;;;;;;;32.20;22.67;;;1.30;99.90;;;;;;5068478;28;20210;-60
2024/03/07 01:53:31;;;;;;;33.22;22.58;;;1.30;99.90;;;;;;5068044;28;20218;-60
2024/03/07 01:55:59;;;;;;;33.42;21.75;;;1.30;99.90;;;;;;5068881;28;20209;-60
2024/03/07 01:58:26;;;;;;;43.70;23.88;;;1.30;99.90;;;;;;5068717;28;20233;-62
2024/03/07 02:00:53;;;;;;;29.75;20.88;;;1.20;99.90;;;;;;5068455;28;20308;-62
2024/03/07 02:03:20;;;;;;;33.80;23.45;;;1.20;99.90;;;;;;5068187;28;20659;-59
2024/03/07 02:05:48;;;;;;;31.67;20.30;;;1.20;99.90;;;;;;5068777;28;20209;-62
2024/03/07 02:08:15;;;;;;;28.35;19.75;;;1.20;99.90;;;;;;5068611;28;20331;-61
2024/03/07 02:10:42;;;;;;;31.80;21.50;;;1.10;99.90;;;;;;5068791;28;20255;-60
2024/03/07 02:13:09;;;;;;;36.47;22.40;;;1.10;99.90;;;;;;5068561;28;20217;-61
2024/03/07 02:15:36;;;;;;;31.40;21.63;;;1.10;99.90;;;;;;5068946;28;20214;-61
2024/03/07 02:18:03;;;;;;;34.10;23.95;;;1.10;99.90;;;;;;5068372;28;20739;-62
2024/03/07 02:20:30;;;;;;;36.88;22.20;;;1.10;99.90;;;;;;5068285;28;20772;-62
2024/03/07 02:22:58;;;;;;;32.38;23.58;;;1.10;99.90;;;;;;5068127;28;20305;-62
2024/03/07 02:25:25;;;;;;;26.23;20.08;;;1.10;99.90;;;;;;5068635;28;20214;-62
2024/03/07 02:27:52;;;;;;;31.40;23.50;;;1.10;99.90;;;;;;5068492;28;20236;-60
2024/03/07 02:30:19;;;;;;;30.83;21.10;;;1.10;99.90;;;;;;5068365;28;20622;-60
2024/03/07 02:32:51;;;;;;;34.78;23.25;;;1.10;99.90;;;;;;5068033;28;20214;-59
2024/03/07 02:35:19;;;;;;;28.58;23.08;;;1.10;99.90;;;;;;5068587;28;20221;-61
2024/03/07 02:37:46;;;;;;;37.08;23.60;;;1.10;99.90;;;;;;5068323;28;20229;-62
2024/03/07 02:40:16;;;;;;;34.08;23.45;;;1.10;99.90;;;;;;5067208;28;20217;-61
2024/03/07 02:42:43;;;;;;;36.05;25.83;;;1.10;99.90;;;;;;5067997;28;20217;-61
2024/03/07 02:45:14;;;;;;;35.30;26.40;;;1.20;99.90;;;;;;5068545;28;20569;-61
2024/03/07 02:47:42;;;;;;;38.28;23.90;;;1.20;99.90;;;;;;5068283;28;20282;-60
2024/03/07 02:50:10;;;;;;;27.10;20.30;;;1.30;99.90;;;;;;5068177;28;20229;-60
2024/03/07 02:52:37;;;;;;;32.25;23.08;;;1.30;99.90;;;;;;5067722;28;20301;-59
2024/03/07 02:55:04;;;;;;;30.27;22.13;;;1.40;99.90;;;;;;5068086;28;20216;-62
2024/03/07 02:57:33;;;;;;;36.88;25.23;;;1.40;99.90;;;;;;5068263;28;20637;-59
2024/03/07 03:00:00;;;;;;;38.85;24.88;;;1.50;99.90;;;;;;5068051;28;20209;-62
2024/03/07 03:02:27;;;;;;;35.92;22.70;;;1.50;99.90;;;;;;5068653;28;20214;-62
2024/03/07 03:04:54;;;;;;;33.45;23.27;;;1.60;99.90;;;;;;5070443;28;20489;-62
2024/03/07 03:07:21;;;;;;;33.13;23.33;;;1.60;99.90;;;;;;5071751;28;20731;-60
2024/03/07 03:09:48;;;;;;;33.85;24.20;;;1.70;99.90;;;;;;5071464;28;20677;-62
2024/03/07 03:12:16;;;;;;;36.47;24.48;;;1.80;99.90;;;;;;5071630;28;20212;-60
2024/03/07 03:14:44;;;;;;;37.67;24.75;;;1.80;99.90;;;;;;5071052;28;20213;-63
2024/03/07 03:17:11;;;;;;;36.85;22.20;;;1.80;99.90;;;;;;5071832;28;20233;-62
2024/03/07 03:19:37;;;;;;;32.72;21.42;;;1.90;99.90;;;;;;5071820;28;20531;-62
2024/03/07 03:22:04;;;;;;;34.55;23.33;;;1.90;99.90;;;;;;5071159;28;20217;-61
2024/03/07 03:24:31;;;;;;;29.95;21.40;;;2.00;99.90;;;;;;5070988;28;20220;-61
2024/03/07 03:26:58;;;;;;;38.20;21.50;;;2.00;99.90;;;;;;5071244;28;20214;-62
2024/03/07 03:29:28;;;;;;;31.33;21.48;;;2.00;99.90;;;;;;5070210;28;20321;-61
2024/03/07 03:31:56;;;;;;;32.35;22.48;;;2.00;99.90;;;;;;5071259;28;20210;-61
2024/03/07 03:34:23;;;;;;;36.35;22.50;;;2.00;99.90;;;;;;5070336;28;20215;-60
2024/03/07 03:36:50;;;;;;;34.58;22.65;;;2.10;99.90;;;;;;5070888;28;20210;-60
2024/03/07 03:39:16;;;;;;;36.45;22.58;;;2.10;99.90;;;;;;5070922;28;20209;-62
2024/03/07 03:41:43;;;;;;;30.77;21.40;;;2.10;99.90;;;;;;5071069;28;20202;-62
2024/03/07 03:44:11;;;;;;;34.50;23.48;;;2.20;99.90;;;;;;5070257;28;20216;-61
2024/03/07 03:46:38;;;;;;;32.92;22.20;;;2.20;99.90;;;;;;5071161;28;20211;-60
2024/03/07 03:49:07;;;;;;;30.75;20.30;;;2.20;99.90;;;;;;5071104;28;20209;-62
2024/03/07 03:51:33;;;;;;;31.13;20.15;;;2.30;99.90;;;;;;5070932;28;20217;-59
2024/03/07 03:54:00;;;;;;;27.38;20.63;;;2.30;99.90;;;;;;5070322;28;20210;-61
2024/03/07 03:56:27;;;;;;;32.92;20.80;;;2.40;99.90;;;;;;5070664;28;20944;-61
2024/03/07 03:58:54;;;;;;;32.00;21.33;;;2.40;99.90;;;;;;5071211;28;20603;-60
2024/03/07 04:01:21;;;;;;;28.05;21.42;;;2.40;99.90;;;;;;5070062;28;20747;-62
2024/03/07 04:03:47;;;;;;;33.78;21.38;;;2.40;99.90;;;;;;5070438;28;20212;-62
2024/03/07 04:06:16;;;;;;;29.13;21.77;;;2.40;99.90;;;;;;5070653;28;20643;-59
2024/03/07 04:08:42;;;;;;;32.75;24.40;;;2.40;99.90;;;;;;5070262;28;20233;-61
2024/03/07 04:11:10;;;;;;;26.73;20.35;;;2.40;99.90;;;;;;5067337;28;20229;-63
2024/03/07 04:13:38;;;;;;;28.05;21.05;;;2.50;99.90;;;;;;5070016;28;20926;-62
2024/03/07 04:16:05;;;;;;;36.25;23.50;;;2.50;99.90;;;;;;5070131;28;20240;-62
2024/03/07 04:18:32;;;;;;;30.23;21.77;;;2.50;99.90;;;;;;5070847;28;20232;-61
2024/03/07 04:20:58;;;;;;;29.27;21.10;;;2.60;99.90;;;;;;5070338;28;20699;-60
2024/03/07 04:23:27;;;;;;;36.15;23.55;;;2.60;99.90;;;;;;5069891;28;20210;-62
2024/03/07 04:25:56;;;;;;;27.77;19.55;;;2.60;99.90;;;;;;5070137;28;20220;-60
2024/03/07 04:28:23;;;;;;;26.73;20.58;;;2.60;99.90;;;;;;5069999;28;20881;-62
2024/03/07 04:30:50;;;;;;;37.40;23.30;;;2.70;99.90;;;;;;5069659;28;20229;-61
2024/03/07 04:33:17;;;;;;;31.05;22.45;;;2.70;99.90;;;;;;5069394;28;20308;-60
2024/03/07 04:35:44;;;;;;;26.02;19.95;;;2.70;99.90;;;;;;5070054;28;20668;-61
2024/03/07 04:38:14;;;;;;;33.20;24.25;;;2.70;99.90;;;;;;5070000;28;20230;-61
2024/03/07 04:40:43;;;;;;;32.45;22.13;;;2.80;99.90;;;;;;5069926;28;20280;-62
2024/03/07 04:43:10;;;;;;;28.85;19.90;;;2.80;99.90;;;;;;5069188;28;20215;-61
2024/03/07 04:45:37;;;;;;;31.17;21.98;;;2.80;99.90;;;;;;5069603;28;20702;-60
2024/03/07 04:48:04;;;;;;;31.80;23.27;;;2.80;99.90;;;;;;5069268;28;20747;-62
2024/03/07 04:50:31;;;;;;;30.48;22.30;;;2.90;99.90;;;;;;5069475;28;20238;-58
2024/03/07 04:52:58;;;;;;;29.85;21.33;;;2.90;99.90;;;;;;5069723;28;20594;-60
2024/03/07 04:55:25;;;;;;;33.95;21.98;;;2.90;99.90;;;;;;5069653;28;20223;-58
2024/03/07 04:57:53;;;;;;;25.95;19.23;;;2.90;99.90;;;;;;5069171;28;20232;-62
2024/03/07 05:00:20;;;;;;;28.92;20.23;;;2.90;99.90;;;;;;5068181;28;20216;-62
2024/03/07 05:02:48;;;;;;;32.28;21.70;;;2.90;99.90;;;;;;5068736;28;20672;-61
2024/03/07 05:05:21;;;;;;;28.60;19.55;;;3.00;99.90;;;;;;5069174;28;20229;-61
2024/03/07 05:07:49;;;;;;;28.05;20.60;;;3.00;99.90;;;;;;5069477;28;20324;-62
2024/03/07 05:10:16;;;;;;;31.60;21.52;;;3.00;99.90;;;;;;5069054;28;20345;-63
2024/03/07 05:12:43;;;;;;;30.50;19.92;;;3.00;99.90;;;;;;5068677;28;20305;-61
2024/03/07 05:15:11;;;;;;;27.83;19.17;;;3.10;99.90;;;;;;5069003;28;20298;-62
2024/03/07 05:17:39;;;;;;;29.08;20.83;;;3.10;99.90;;;;;;5069118;28;20554;-61
2024/03/07 05:20:09;;;;;;;26.23;19.52;;;3.10;99.90;;;;;;5068806;28;20210;-60
2024/03/07 05:22:38;;;;;;;25.08;18.02;;;3.20;99.90;;;;;;5068619;28;20571;-63
2024/03/07 05:25:06;;;;;;;25.30;20.55;;;3.20;99.90;;;;;;5069167;28;20213;-61
2024/03/07 05:27:33;;;;;;;27.05;18.38;;;3.20;99.90;;;;;;5068453;28;20234;-62
2024/03/07 05:30:00;;;;;;;29.10;18.10;;;3.30;99.90;;;;;;5068791;28;20778;-61
2024/03/07 05:32:28;;;;;;;22.70;18.00;;;3.30;99.90;;;;;;5068867;28;20511;-60
2024/03/07 05:34:55;;;;;;;24.15;18.05;;;3.30;99.90;;;;;;5068270;28;20259;-62
2024/03/07 05:37:23;;;;;;;22.67;15.98;;;3.40;99.90;;;;;;5068719;28;20229;-62
2024/03/07 05:39:50;;;;;;;21.88;14.85;;;3.40;99.90;;;;;;5068878;28;20308;-59
2024/03/07 05:42:17;;;;;;;25.15;16.33;;;3.50;99.90;;;;;;5068665;28;20848;-62
2024/03/07 05:44:44;;;;;;;22.65;15.63;;;3.50;99.90;;;;;;5068145;28;20244;-60
2024/03/07 05:47:13;;;;;;;18.85;14.65;;;3.60;99.90;;;;;;5068406;28;20233;-61
2024/03/07 05:49:41;;;;;;;22.50;16.27;;;3.60;99.90;;;;;;5068260;28;20210;-61
2024/03/07 05:52:08;;;;;;;19.33;15.07;;;3.60;99.90;;;;;;5068666;28;20216;-60
2024/03/07 05:54:36;;;;;;;20.05;15.57;;;3.70;99.90;;;;;;5068004;28;20304;-63
2024/03/07 05:57:03;;;;;;;20.60;15.10;;;3.70;99.90;;;;;;5068781;28;20230;-63
2024/03/07 05:59:30;;;;;;;17.25;13.60;;;3.70;99.90;;;;;;5068410;28;20229;-61
2024/03/07 06:01:57;;;;;;;17.95;13.82;;;3.70;99.90;;;;;;5068733;28;20267;-62
2024/03/07 06:04:24;;;;;;;23.67;15.73;;;3.80;99.90;;;;;;5068052;28;20209;-63
2024/03/07 06:06:52;;;;;;;21.10;14.40;;;3.80;99.90;;;;;;5068107;28;20300;-62
2024/03/07 06:09:21;;;;;;;19.60;13.88;;;3.80;99.90;;;;;;5068092;28;20240;-61
2024/03/07 06:11:48;;;;;;;19.58;13.75;;;3.80;99.90;;;;;;5068102;28;20646;-61
2024/03/07 06:14:16;;;;;;;21.23;14.70;;;3.80;99.90;;;;;;5068026;28;20736;-59
2024/03/07 06:16:43;;;;;;;18.40;14.30;;;3.80;99.90;;;;;;5068238;28;20214;-60
2024/03/07 06:19:11;;;;;;;20.00;13.15;;;3.70;99.90;;;;;;5068292;28;20292;-60
2024/03/07 06:21:40;;;;;;;15.50;13.73;;;3.70;99.90;;;;;;5068332;28;20224;-60
2024/03/07 06:24:11;;;;;;;16.20;13.05;;;3.60;99.90;;;;;;5067874;28;20209;-61
2024/03/07 06:26:46;;;;;;;15.20;11.60;;;3.60;99.90;;;;;;5068233;28;20213;-63
2024/03/07 06:29:13;;;;;;;15.35;12.98;;;3.50;99.90;;;;;;5068608;28;20696;-62
2024/03/07 06:31:41;;;;;;;18.02;13.93;;;3.40;99.90;;;;;;5068339;28;20229;-58
2024/03/07 06:34:08;;;;;;;17.33;13.70;;;3.40;99.90;;;;;;5067900;28;20298;-59
2024/03/07 06:36:35;;;;;;;18.48;13.40;;;3.30;99.90;;;;;;5068176;28;20244;-62
2024/03/07 06:39:02;;;;;;;16.45;12.63;;;3.30;99.90;;;;;;5070942;28;20233;-58
2024/03/07 06:41:31;;;;;;;17.95;13.20;;;3.20;99.90;;;;;;5071853;28;20229;-61
2024/03/07 06:43:58;;;;;;;17.17;12.80;;;3.20;99.90;;;;;;5071329;28;20213;-62
2024/03/07 06:46:24;;;;;;;21.48;13.50;;;3.10;99.90;;;;;;5071933;28;20220;-62
2024/03/07 06:48:52;;;;;;;17.02;11.60;;;3.10;99.90;;;;;;5071484;28;20335;-60
2024/03/07 06:51:19;;;;;;;18.25;12.20;;;3.00;99.90;;;;;;5071288;28;20233;-61
2024/03/07 06:53:46;;;;;;;18.58;11.82;;;3.00;99.90;;;;;;5071027;28;20214;-60
2024/03/07 06:56:13;;;;;;;23.08;14.30;;;2.90;99.90;;;;;;5071068;28;20202;-61
2024/03/07 06:58:42;;;;;;;16.92;12.75;;;2.90;99.90;;;;;;5071015;28;20230;-61
2024/03/07 07:01:10;;;;;;;15.40;13.80;;;2.90;99.90;;;;;;5070922;28;20204;-59
2024/03/07 07:03:37;;;;;;;19.40;12.73;;;2.90;99.90;;;;;;5067791;28;20212;-61
2024/03/07 07:06:06;;;;;;;20.80;13.32;;;2.90;99.90;;;;;;5070486;28;20212;-60
2024/03/07 07:08:33;;;;;;;18.73;12.65;;;2.90;99.90;;;;;;5068763;28;20229;-60
2024/03/07 07:11:00;;;;;;;23.40;16.02;;;3.00;99.90;;;;;;5070671;28;20222;-61
2024/03/07 07:13:27;;;;;;;19.02;14.27;;;3.00;99.90;;;;;;5070202;28;20198;-61
2024/03/07 07:15:55;;;;;;;18.35;13.23;;;3.10;99.90;;;;;;5071001;28;20205;-60
2024/03/07 07:18:23;;;;;;;20.90;14.90;;;3.20;99.90;;;;;;5070961;28;20240;-61
2024/03/07 07:20:51;;;;;;;18.85;15.57;;;3.40;99.90;;;;;;5070614;28;20240;-61
2024/03/07 07:23:18;;;;;;;20.75;15.65;;;3.40;99.90;;;;;;5070607;28;20270;-61
2024/03/07 07:25:46;;;;;;;19.25;14.43;;;3.60;99.90;;;;;;5071133;28;20213;-61
2024/03/07 07:28:13;;;;;;;18.10;15.10;;;3.70;99.90;;;;;;5071029;28;20256;-59
2024/03/07 07:30:40;;;;;;;20.75;14.05;;;3.80;99.90;;;;;;5070524;28;20225;-61
2024/03/07 07:33:08;;;;;;;16.15;14.25;;;3.90;99.90;;;;;;5069452;28;20213;-61
2024/03/07 07:35:35;;;;;;;20.05;15.13;;;3.90;99.90;;;;;;5070224;28;20300;-58
2024/03/07 09:50:08;;;;;;;22.33;16.25;;;6.70;99.90;;;;;;5908124;23;20605;-66
2024/03/07 09:52:36;;;;;;;20.55;16.85;;;6.80;99.90;;;;;;5015460;28;20699;-65
2024/03/07 09:55:03;;;;;;;24.35;18.38;;;6.90;99.90;;;;;;5020058;28;20199;-65
2024/03/07 09:57:34;;;;;;;24.67;17.63;;;7.00;99.90;;;;;;5031490;28;20207;-65
2024/03/07 10:00:02;;;;;;;22.73;17.02;;;7.10;99.90;;;;;;5018949;28;20243;-65
2024/03/07 10:02:33;;;;;;;22.38;18.35;;;7.30;99.90;;;;;;5006680;28;20200;-65
2024/03/07 10:05:02;;;;;;;19.05;16.83;;;7.40;99.90;;;;;;4994063;28;20248;-65
2024/03/07 10:07:31;;;;;;;21.90;17.05;;;7.60;99.90;;;;;;4991686;28;20216;-65
2024/03/07 10:09:59;;;;;;;20.53;15.93;;;7.70;99.90;;;;;;4986417;28;20235;-65
2024/03/07 10:12:26;;;;;;;19.05;15.25;;;7.80;99.90;;;;;;5003539;23;20563;-62
2024/03/07 10:14:57;;;;;;;20.38;16.58;;;7.90;99.90;;;;;;4992668;28;20208;-62
2024/03/07 10:17:26;;;;;;;20.27;15.43;;;7.90;99.90;;;;;;4985121;28;20609;-62
2024/03/07 10:19:54;;;;;;;18.73;15.43;;;8.00;99.90;;;;;;4991417;28;20208;-66
2024/03/07 10:22:21;;;;;;;17.80;15.98;;;8.10;99.90;;;;;;4984698;28;20539;-62
2024/03/07 10:24:53;;;;;;;22.77;17.57;;;8.30;99.90;;;;;;4984831;28;20208;-62
2024/03/07 10:27:21;;;;;;;20.23;15.83;;;8.50;99.90;;;;;;4983279;28;20530;-62
2024/03/07 10:29:49;;;;;;;19.50;15.73;;;8.80;99.90;;;;;;4983786;28;20450;-62
2024/03/07 10:32:20;;;;;;;20.10;15.97;;;9.00;99.90;;;;;;4984301;28;20499;-63
2024/03/07 10:34:48;;;;;;;20.57;15.10;;;9.20;99.90;;;;;;4981181;28;20445;-62
2024/03/07 10:37:17;;;;;;;21.33;15.90;;;9.30;99.90;;;;;;4974324;28;20962;-63
2024/03/07 10:39:45;;;;;;;19.07;15.80;;;9.40;99.90;;;;;;4974731;28;20453;-62
2024/03/07 10:42:16;;;;;;;19.57;15.43;;;9.40;99.90;;;;;;4974408;28;20836;-63
2024/03/07 10:44:45;;;;;;;20.43;15.10;;;9.40;99.90;;;;;;4975209;28;20463;-62
2024/03/07 10:47:16;;;;;;;18.30;15.70;;;9.60;99.90;;;;;;4974512;28;20449;-62
2024/03/07 10:49:58;;;;;;;16.80;15.00;;;9.90;99.90;;;;;;4969601;28;20507;-63
2024/03/07 10:52:30;;;;;;;16.73;14.93;;;10.30;99.90;;;;;;4958620;28;20484;-62
2024/03/07 10:55:08;;;;;;;18.43;13.93;;;10.50;99.90;;;;;;4971921;28;20452;-62
2024/03/07 10:57:47;;;;;;;16.70;15.00;;;10.70;99.90;;;;;;4973594;28;20527;-63
2024/03/07 11:00:29;;;;;;;16.60;13.73;;;11.00;99.90;;;;;;4973283;28;20443;-62
2024/03/07 11:02:57;;;;;;;16.97;13.67;;;11.20;99.90;;;;;;4973323;28;20464;-62
2024/03/07 11:05:29;;;;;;;15.17;13.60;;;11.20;99.90;;;;;;4973283;28;20896;-62
2024/03/07 11:07:58;;;;;;;16.90;15.07;;;11.10;99.90;;;;;;4971226;28;20492;-63
2024/03/07 11:10:25;;;;;;;17.43;14.00;;;11.10;99.90;;;;;;4974182;28;20445;-62
2024/03/07 11:12:55;;;;;;;16.97;15.17;;;11.20;99.90;;;;;;4970362;28;20492;-62
2024/03/07 11:15:26;;;;;;;15.70;13.07;;;11.40;99.90;;;;;;4974198;28;20790;-63
2024/03/07 11:17:54;;;;;;;17.50;14.20;;;11.60;99.90;;;;;;4972769;28;20481;-62
2024/03/07 11:20:22;;;;;;;15.07;13.50;;;11.70;99.90;;;;;;4963462;28;20452;-62
2024/03/07 11:22:50;;;;;;;15.60;12.60;;;11.80;99.90;;;;;;4985958;28;20470;-63
2024/03/07 11:25:19;;;;;;;15.17;12.23;;;11.80;99.90;;;;;;4981401;28;20539;-62
2024/03/07 11:27:55;;;;;;;14.87;11.83;;;11.90;99.60;;;;;;4980753;28;20503;-62
2024/03/07 11:30:23;;;;;;;14.23;12.73;;;12.00;99.70;;;;;;4985638;28;20444;-63
2024/03/07 11:32:53;;;;;;;14.30;12.50;;;12.10;99.90;;;;;;4983714;28;20867;-62
2024/03/07 11:35:25;;;;;;;15.47;13.83;;;12.00;99.00;;;;;;4973813;28;20449;-62
2024/03/07 11:37:58;;;;;;;15.23;12.67;;;11.80;98.40;;;;;;4973678;28;20476;-62
2024/03/07 11:40:43;;;;;;;13.23;11.90;;;11.50;98.00;;;;;;4958737;28;20483;-62
2024/03/07 11:43:13;;;;;;;16.00;11.70;;;11.30;98.40;;;;;;4968729;28;20461;-63
2024/03/07 11:45:44;;;;;;;14.10;12.60;;;11.20;99.00;;;;;;4973663;28;20452;-62
2024/03/07 11:48:12;;;;;;;15.87;13.40;;;11.00;99.30;;;;;;4969008;28;20806;-62
2024/03/07 11:50:39;;;;;;;14.30;12.00;;;10.80;98.60;;;;;;4971234;28;20444;-63
2024/03/07 11:53:08;;;;;;;16.80;14.13;;;10.70;98.70;;;;;;4970955;28;20864;-64
2024/03/07 11:55:41;;;;;;;14.43;11.50;;;10.60;99.60;;;;;;4970602;28;20472;-63
2024/03/07 11:58:09;;;;;;;14.10;11.43;;;10.50;99.90;;;;;;4973083;28;20445;-63
2024/03/07 12:00:42;;;;;;;14.30;11.30;;;10.50;99.90;;;;;;4967927;28;20479;-63
2024/03/07 12:03:13;;;;;;;16.53;12.83;;;10.50;99.40;;;;;;4970743;28;20469;-63
2024/03/07 12:05:40;;;;;;;15.00;10.80;;;10.40;98.90;;;;;;4967590;28;20471;-61
2024/03/07 12:08:09;;;;;;;13.00;11.80;;;10.30;99.30;;;;;;4960782;28;21007;-64
2024/03/07 12:10:38;;;;;;;14.20;11.83;;;10.30;99.90;;;;;;4972735;28;20483;-62
2024/03/07 12:13:06;;;;;;;12.50;10.70;;;10.20;99.90;;;;;;4972108;28;20962;-62
2024/03/07 12:15:34;;;;;;;12.23;10.40;;;10.20;99.90;;;;;;4972455;28;20452;-63
2024/03/07 12:18:08;;;;;;;17.60;12.33;;;10.10;99.80;;;;;;4972585;28;20456;-63
2024/03/07 12:20:36;;;;;;;14.70;11.80;;;10.00;98.50;;;;;;4972959;28;20463;-64
2024/03/07 12:23:05;;;;;;;14.20;11.27;;;9.90;99.40;;;;;;4973211;28;20467;-62
2024/03/07 12:25:32;;;;;;;14.57;11.13;;;9.80;99.90;;;;;;4973007;28;20476;-62
2024/03/07 12:28:10;;;;;;;13.65;10.63;;;9.80;99.80;;;;;;4972369;28;20536;-62
2024/03/07 12:30:49;;;;;;;15.40;12.43;;;9.80;99.50;;;;;;4971193;28;20208;-62
2024/03/07 12:33:18;;;;;;;14.63;11.27;;;9.70;99.90;;;;;;4972636;28;20499;-62
2024/03/07 12:35:45;;;;;;;12.50;10.87;;;9.80;99.90;;;;;;4972141;28;20448;-63
2024/03/07 12:38:14;;;;;;;14.23;11.37;;;9.80;99.90;;;;;;4972418;28;20531;-62
2024/03/07 12:40:43;;;;;;;11.87;10.57;;;9.90;99.90;;;;;;4971748;28;20460;-62
2024/03/07 12:43:20;;;;;;;15.07;12.40;;;10.00;99.70;;;;;;4969743;28;20555;-62
2024/03/07 12:45:50;;;;;;;13.70;11.13;;;10.00;99.40;;;;;;4959102;28;20450;-62
2024/03/07 12:48:21;;;;;;;11.97;10.63;;;10.00;99.60;;;;;;4963645;28;20456;-63
2024/03/07 12:50:53;;;;;;;15.07;13.57;;;10.00;99.40;;;;;;4968654;28;20512;-62
2024/03/07 12:53:20;;;;;;;13.70;11.97;;;10.00;99.40;;;;;;4969099;28;20541;-62
2024/03/07 12:55:47;;;;;;;12.13;10.80;;;9.90;99.90;;;;;;4967566;28;20507;-62
2024/03/07 12:58:15;;;;;;;12.27;11.03;;;9.80;99.90;;;;;;4971374;28;20470;-63
2024/03/07 13:00:42;;;;;;;13.70;11.97;;;9.70;99.90;;;;;;4971320;28;20457;-63
2024/03/07 13:03:09;;;;;;;17.50;12.40;;;9.60;99.90;;;;;;4967664;28;20484;-62
2024/03/07 13:05:40;;;;;;;12.83;11.43;;;9.50;99.90;;;;;;4970458;28;20456;-63
2024/03/07 13:08:11;;;;;;;13.63;11.43;;;9.40;99.90;;;;;;4965186;28;20465;-62
2024/03/07 13:10:38;;;;;;;10.03;8.93;;;9.30;99.90;;;;;;4970175;28;20547;-63
2024/03/07 13:13:05;;;;;;;13.52;10.52;;;9.20;99.90;;;;;;4965005;28;20489;-63
2024/03/07 13:15:32;;;;;;;11.83;10.63;;;9.10;99.90;;;;;;4968347;28;20213;-62
2024/03/07 13:17:59;;;;;;;14.20;10.03;;;9.10;99.90;;;;;;4970656;28;20457;-62
2024/03/07 13:20:27;;;;;;;13.60;10.23;;;9.10;99.90;;;;;;4970391;28;20539;-62
2024/03/07 13:22:56;;;;;;;14.97;12.53;;;9.00;99.90;;;;;;4969877;28;20476;-63
2024/03/07 13:25:25;;;;;;;13.60;10.97;;;9.00;99.90;;;;;;4968772;28;20468;-62
2024/03/07 13:27:56;;;;;;;12.27;10.97;;;9.00;99.90;;;;;;4966921;28;21036;-62
2024/03/07 13:30:27;;;;;;;13.70;10.60;;;9.00;99.90;;;;;;4963596;28;20531;-62
2024/03/07 13:32:55;;;;;;;16.90;11.27;;;9.00;99.90;;;;;;4966578;28;20559;-63
2024/03/07 13:35:22;;;;;;;12.33;10.13;;;9.00;99.90;;;;;;4965909;28;20522;-62
2024/03/07 13:37:50;;;;;;;13.80;10.27;;;9.00;99.90;;;;;;4963595;28;20453;-61
2024/03/07 13:40:24;;;;;;;17.03;11.23;;;9.00;99.90;;;;;;4969170;28;20451;-62
2024/03/07 13:42:55;;;;;;;13.50;10.80;;;9.00;99.90;;;;;;4966231;28;20542;-63
2024/03/07 13:45:27;;;;;;;12.40;10.83;;;9.00;99.90;;;;;;4966529;28;20453;-62
2024/03/07 13:47:55;;;;;;;12.73;10.43;;;9.00;99.90;;;;;;4964626;28;20460;-63
2024/03/07 13:50:24;;;;;;;13.40;11.77;;;9.00;99.90;;;;;;4970248;28;20452;-63
2024/03/07 13:55:48;;;;;;;16.93;10.77;;;9.00;99.90;;;;;;4969460;28;20439;-63
2024/03/07 13:58:24;;;;;;;11.70;9.77;;;9.00;99.90;;;;;;4966000;28;20555;-62
2024/03/07 14:00:58;;;;;;;10.70;9.60;;;9.00;99.90;;;;;;4963863;28;20448;-62
2024/03/07 14:04:17;;;;;;;10.67;9.60;;;8.90;99.90;;;;;;4971155;28;20448;-62
2024/03/07 14:06:55;;;;;;;13.60;11.60;;;8.90;99.90;;;;;;4965356;28;20461;-62
2024/03/07 14:09:57;;;;;;;12.30;11.00;;;8.90;99.90;;;;;;4971030;28;20560;-62
2024/03/07 14:12:52;;;;;;;14.65;12.45;;;8.90;99.90;;;;;;4955348;28;20612;-63
2024/03/07 14:16:07;;;;;;;12.40;10.35;;;8.90;99.90;;;;;;4967333;28;20284;-62
2024/03/07 14:19:14;;;;;;;10.70;9.30;;;8.90;99.90;;;;;;4957231;28;20292;-62
2024/03/07 14:22:04;;;;;;;12.27;9.53;;;8.90;99.90;;;;;;4970502;28;20472;-62
2024/03/07 14:25:24;;;;;;;14.27;10.10;;;9.00;99.90;;;;;;4956829;28;20464;-62
2024/03/07 14:28:07;;;;;;;12.90;9.50;;;8.90;99.90;;;;;;4970982;28;20671;-62
2024/03/07 14:30:53;;;;;;;13.03;10.87;;;8.90;99.90;;;;;;4970910;28;20455;-62
2024/03/07 14:33:22;;;;;;;12.93;10.50;;;8.80;99.90;;;;;;4970774;28;20863;-62
2024/03/07 14:36:03;;;;;;;12.33;10.00;;;8.80;99.90;;;;;;4970145;28;20448;-63
2024/03/07 14:38:45;;;;;;;12.97;11.63;;;8.80;99.90;;;;;;4956785;28;20523;-62
2024/03/07 14:41:14;;;;;;;10.10;9.00;;;8.80;99.90;;;;;;4970803;28;20483;-62
2024/03/07 14:43:44;;;;;;;11.10;9.97;;;8.70;99.90;;;;;;4971129;28;20284;-63
2024/03/07 14:46:13;;;;;;;11.37;10.13;;;8.70;99.90;;;;;;4970536;28;21018;-63
2024/03/07 14:48:41;;;;;;;12.43;10.70;;;8.70;99.90;;;;;;4970924;28;20452;-63
2024/03/07 14:51:13;;;;;;;9.70;8.40;;;8.80;99.90;;;;;;4970614;28;20447;-62
2024/03/07 14:53:40;;;;;;;10.67;9.00;;;8.80;99.90;;;;;;4971067;28;20480;-63
2024/03/07 14:56:08;;;;;;;11.97;9.90;;;8.80;99.90;;;;;;4971062;28;20459;-62
2024/03/07 14:58:36;;;;;;;12.67;10.57;;;8.80;99.90;;;;;;4966957;28;20492;-62
2024/03/07 15:01:06;;;;;;;15.65;12.50;;;8.80;99.90;;;;;;4973436;28;20449;-62